Time;durP1;ratioP1;P1;durP2;ratioP2;P2;SDS_P1;SDS_P2;PMS_P1;PMS_P2;Temp;Humidity;BMP_temperature;BMP_pressure;BME280_temperature;BME280_humidity;BME280_pressure;Samples;Min_cycle;Max_cycle;Signal;HPM_P1;HPM_P2
2022/04/21 00:02:18;;;;;;;6.10;5.03;;;12.10;99.90;;;;;;5058192;28;20286;-50
2022/04/21 00:04:45;;;;;;;7.33;5.47;;;11.90;99.90;;;;;;5060636;28;20614;-51
2022/04/21 00:07:12;;;;;;;6.40;5.17;;;11.80;99.90;;;;;;5047013;28;20236;-51
2022/04/21 00:09:39;;;;;;;6.20;4.70;;;11.90;99.90;;;;;;5059628;28;20208;-50
2022/04/21 00:12:06;;;;;;;6.10;5.23;;;11.90;99.90;;;;;;5062614;28;20282;-55
2022/04/21 00:14:33;;;;;;;6.07;5.20;;;11.90;99.90;;;;;;5061134;28;20220;-51
2022/04/21 00:17:00;;;;;;;6.93;5.33;;;11.90;99.90;;;;;;5056405;28;20188;-50
2022/04/21 00:19:27;;;;;;;6.80;4.80;;;11.90;99.90;;;;;;5062467;28;20228;-50
2022/04/21 00:24:39;;;;;;;9.10;5.00;;;11.80;99.90;;;;;;5058528;28;20219;-50
2022/04/21 00:27:06;;;;;;;9.63;5.00;;;11.60;99.90;;;;;;5058746;28;20196;-52
2022/04/21 00:29:33;;;;;;;7.27;4.87;;;11.60;99.90;;;;;;5061102;28;20242;-51
2022/04/21 00:32:01;;;;;;;4.90;4.33;;;11.60;99.90;;;;;;5060761;28;20302;-52
2022/04/21 00:34:28;;;;;;;10.20;5.00;;;11.70;99.90;;;;;;5062869;28;20639;-51
2022/04/21 00:36:55;;;;;;;6.50;4.77;;;11.60;99.90;;;;;;5063333;28;20218;-53
2022/04/21 00:39:21;;;;;;;6.13;5.50;;;11.60;99.90;;;;;;5059584;28;20690;-53
2022/04/21 00:41:48;;;;;;;7.10;5.43;;;11.50;99.90;;;;;;5063930;28;21176;-50
2022/04/21 00:44:15;;;;;;;8.27;5.07;;;11.70;99.90;;;;;;5061745;28;20257;-49
2022/04/21 00:46:41;;;;;;;6.60;5.00;;;11.50;99.90;;;;;;5061307;28;20219;-48
2022/04/21 00:49:08;;;;;;;8.73;5.53;;;11.60;99.90;;;;;;5060373;28;20326;-52
2022/04/21 00:51:35;;;;;;;8.17;5.43;;;11.60;99.90;;;;;;5060727;28;20230;-49
2022/04/21 00:54:03;;;;;;;5.87;4.90;;;11.70;99.90;;;;;;5060237;28;20199;-50
2022/04/21 00:56:30;;;;;;;5.90;5.00;;;11.50;99.90;;;;;;5062383;28;20188;-52
2022/04/21 00:58:57;;;;;;;6.10;5.50;;;11.50;99.90;;;;;;5059353;28;20287;-51
2022/04/21 01:04:10;;;;;;;6.57;4.80;;;11.60;99.90;;;;;;5057759;28;20294;-50
2022/04/21 01:06:37;;;;;;;8.90;4.93;;;11.60;99.90;;;;;;5062008;28;20206;-51
2022/04/21 01:09:04;;;;;;;6.17;5.13;;;11.60;99.90;;;;;;5063489;28;20210;-53
2022/04/21 01:11:31;;;;;;;6.20;5.30;;;11.60;99.90;;;;;;5061470;28;20207;-51
2022/04/21 01:13:59;;;;;;;7.17;4.80;;;11.50;99.90;;;;;;5059928;28;20202;-50
2022/04/21 01:16:26;;;;;;;10.80;5.30;;;11.30;99.90;;;;;;5041557;28;20191;-50
2022/04/21 01:18:53;;;;;;;7.07;4.60;;;11.40;99.90;;;;;;5042026;28;20205;-51
2022/04/21 01:21:20;;;;;;;5.50;4.93;;;11.30;99.90;;;;;;5058629;28;21063;-51
2022/04/21 01:23:47;;;;;;;6.80;5.00;;;11.10;99.90;;;;;;5045188;28;20207;-50
2022/04/21 01:26:16;;;;;;;6.97;5.10;;;11.10;99.90;;;;;;5063943;28;20205;-53
2022/04/21 01:28:46;;;;;;;9.33;4.90;;;11.10;99.90;;;;;;5061644;28;20230;-51
2022/04/21 01:31:13;;;;;;;8.67;4.80;;;11.20;99.90;;;;;;5060155;28;20264;-51
2022/04/21 01:33:40;;;;;;;7.20;4.70;;;11.20;99.90;;;;;;5058501;28;20214;-50
2022/04/21 01:36:07;;;;;;;6.10;4.50;;;11.30;99.90;;;;;;5064124;28;20229;-51
2022/04/21 01:41:19;;;;;;;13.20;5.17;;;11.10;99.90;;;;;;5059141;28;20234;-52
2022/04/21 01:43:46;;;;;;;7.47;4.50;;;11.00;99.90;;;;;;5060159;28;20234;-52
2022/04/21 01:46:13;;;;;;;5.30;4.50;;;11.10;99.90;;;;;;5059034;28;20321;-50
2022/04/21 01:48:40;;;;;;;8.00;4.60;;;11.20;99.90;;;;;;5057087;28;20203;-51
2022/04/21 01:51:07;;;;;;;9.17;4.67;;;11.20;99.90;;;;;;5058430;28;20643;-51
2022/04/21 01:53:34;;;;;;;5.70;4.73;;;11.20;99.90;;;;;;5058499;28;20233;-51
2022/04/21 01:56:01;;;;;;;5.97;4.70;;;11.20;99.90;;;;;;5059199;28;20722;-51
2022/04/21 01:58:28;;;;;;;7.17;4.83;;;10.90;99.90;;;;;;5059640;28;20234;-52
2022/04/21 02:00:55;;;;;;;6.97;5.30;;;10.90;99.90;;;;;;5059279;28;20206;-53
2022/04/21 02:03:22;;;;;;;9.33;5.17;;;10.90;99.90;;;;;;5055181;28;20199;-52
2022/04/21 02:05:48;;;;;;;5.00;4.50;;;10.90;99.90;;;;;;5059777;28;20614;-49
2022/04/21 02:08:15;;;;;;;6.97;5.50;;;10.80;99.90;;;;;;5060579;28;20245;-50
2022/04/21 02:10:42;;;;;;;5.80;4.50;;;10.80;99.90;;;;;;5058366;28;20238;-51
2022/04/21 02:13:09;;;;;;;7.20;5.03;;;10.80;99.90;;;;;;5059018;28;20199;-54
2022/04/21 02:15:36;;;;;;;5.43;4.43;;;10.80;99.90;;;;;;5054987;28;20191;-49
2022/04/21 02:18:03;;;;;;;5.93;5.00;;;10.80;99.90;;;;;;5061663;28;20213;-51
2022/04/21 02:20:30;;;;;;;5.90;4.60;;;10.70;99.90;;;;;;5060147;28;20202;-51
2022/04/21 02:22:57;;;;;;;6.30;5.03;;;10.60;99.90;;;;;;5053800;28;20230;-51
2022/04/21 02:25:24;;;;;;;6.40;5.07;;;10.60;99.90;;;;;;5061018;28;20287;-52
2022/04/21 02:27:51;;;;;;;7.83;4.93;;;10.60;99.90;;;;;;5059023;28;20243;-51
2022/04/21 02:30:18;;;;;;;6.83;4.87;;;10.50;99.90;;;;;;5058202;28;20294;-51
2022/04/21 02:32:46;;;;;;;6.10;5.07;;;10.40;99.90;;;;;;5059849;28;20233;-50
2022/04/21 02:35:14;;;;;;;8.83;5.00;;;10.50;99.90;;;;;;5057026;28;20229;-51
2022/04/21 02:37:44;;;;;;;6.70;4.97;;;10.60;99.90;;;;;;5059502;28;20194;-51
2022/04/21 02:40:11;;;;;;;6.80;4.60;;;10.60;99.90;;;;;;5062072;28;20205;-51
2022/04/21 02:42:38;;;;;;;5.53;4.50;;;10.60;99.90;;;;;;5065659;28;20295;-50
2022/04/21 02:45:11;;;;;;;7.07;5.27;;;10.60;99.90;;;;;;5062102;28;20204;-51
2022/04/21 02:47:43;;;;;;;5.67;4.40;;;10.60;99.90;;;;;;5063995;28;20666;-51
2022/04/21 02:50:14;;;;;;;5.50;4.33;;;10.60;99.90;;;;;;5063273;28;20681;-49
2022/04/21 02:52:41;;;;;;;6.73;4.83;;;10.50;99.90;;;;;;5059480;28;20231;-49
2022/04/21 02:57:56;;;;;;;6.07;5.37;;;10.30;99.90;;;;;;5064360;28;20498;-51
2022/04/21 03:00:23;;;;;;;5.53;4.60;;;10.30;99.90;;;;;;5045529;28;21980;-49
2022/04/21 03:02:50;;;;;;;6.63;4.80;;;10.30;99.90;;;;;;5058703;28;20205;-50
2022/04/21 03:05:17;;;;;;;6.70;5.33;;;10.30;99.90;;;;;;5059033;28;20286;-50
2022/04/21 03:07:44;;;;;;;7.30;5.03;;;10.30;99.90;;;;;;5061521;28;20309;-52
2022/04/21 03:10:11;;;;;;;6.87;5.10;;;10.40;99.90;;;;;;5065730;28;20196;-50
2022/04/21 03:12:38;;;;;;;6.37;4.47;;;10.30;99.90;;;;;;5060605;28;20299;-51
2022/04/21 03:15:05;;;;;;;4.77;4.30;;;10.30;99.90;;;;;;5063864;28;20192;-51
2022/04/21 03:17:32;;;;;;;6.53;5.27;;;10.30;99.90;;;;;;5060078;28;20611;-50
2022/04/21 03:19:59;;;;;;;6.17;4.50;;;10.10;99.90;;;;;;5058332;28;20704;-49
2022/04/21 03:25:11;;;;;;;8.03;5.07;;;10.30;99.90;;;;;;5058822;28;21779;-50
2022/04/21 03:27:38;;;;;;;7.10;5.43;;;10.20;99.90;;;;;;5059713;28;20204;-50
2022/04/21 03:30:06;;;;;;;5.50;4.87;;;10.20;99.90;;;;;;5061420;28;20657;-50
2022/04/21 03:32:34;;;;;;;10.77;5.23;;;10.20;99.90;;;;;;5064917;28;20313;-50
2022/04/21 03:35:02;;;;;;;5.90;4.83;;;10.30;99.90;;;;;;5061531;28;22048;-51
2022/04/21 03:37:29;;;;;;;6.63;5.23;;;10.20;99.90;;;;;;5063169;28;20209;-51
2022/04/21 03:39:55;;;;;;;5.17;4.57;;;10.20;99.90;;;;;;5061675;28;20288;-51
2022/04/21 03:42:26;;;;;;;7.03;4.90;;;10.20;99.90;;;;;;5061419;28;20312;-51
2022/04/21 03:44:54;;;;;;;7.20;4.53;;;10.10;99.90;;;;;;5064065;28;20293;-51
2022/04/21 03:47:21;;;;;;;6.80;4.40;;;10.20;99.90;;;;;;5060678;28;20214;-51
2022/04/21 03:49:49;;;;;;;5.83;4.60;;;10.30;99.90;;;;;;5058827;28;20359;-51
2022/04/21 03:52:17;;;;;;;7.10;4.73;;;10.30;99.90;;;;;;5062750;28;20275;-51
2022/04/21 03:54:44;;;;;;;5.43;4.87;;;10.30;99.90;;;;;;5059633;28;20217;-50
2022/04/21 03:57:11;;;;;;;9.10;5.77;;;10.30;99.90;;;;;;5038495;28;20208;-49
2022/04/21 03:59:38;;;;;;;5.97;4.60;;;10.30;99.90;;;;;;5058033;28;20737;-51
2022/04/21 04:02:05;;;;;;;7.93;4.30;;;10.40;99.90;;;;;;5062152;28;20244;-49
2022/04/21 04:04:34;;;;;;;5.37;4.27;;;10.40;99.90;;;;;;5060082;28;20214;-51
2022/04/21 04:12:37;;;;;;;7.50;4.57;;;10.40;99.90;;;;;;5061649;28;20677;-50
2022/04/21 04:15:06;;;;;;;5.57;4.20;;;10.40;99.90;;;;;;5063659;28;20294;-50
2022/04/21 04:17:33;;;;;;;7.47;4.70;;;10.40;99.90;;;;;;5060198;28;20849;-52
2022/04/21 04:20:00;;;;;;;5.00;3.70;;;10.50;99.90;;;;;;5059637;28;20654;-50
2022/04/21 04:22:27;;;;;;;7.10;4.90;;;10.40;99.90;;;;;;5061708;28;20320;-50
2022/04/21 04:24:56;;;;;;;6.03;4.00;;;10.50;99.90;;;;;;5059434;28;21622;-52
2022/04/21 04:27:24;;;;;;;5.20;4.27;;;10.60;99.90;;;;;;5063404;28;20290;-51
2022/04/21 04:29:51;;;;;;;7.80;4.60;;;10.60;99.90;;;;;;5062358;28;20710;-50
2022/04/21 04:32:18;;;;;;;6.77;4.17;;;10.60;99.90;;;;;;5059308;28;20697;-50
2022/04/21 04:34:44;;;;;;;5.23;3.90;;;10.60;99.90;;;;;;5058854;28;20218;-49
2022/04/21 04:37:11;;;;;;;6.03;3.53;;;10.60;99.90;;;;;;5062361;28;20262;-50
2022/04/21 04:39:38;;;;;;;5.33;3.87;;;10.60;99.90;;;;;;5065269;28;20650;-51
2022/04/21 04:42:17;;;;;;;6.73;4.23;;;10.60;99.90;;;;;;5061837;28;20943;-52
2022/04/21 04:44:45;;;;;;;6.67;3.97;;;10.60;99.90;;;;;;5063554;28;20282;-51
2022/04/21 04:47:12;;;;;;;4.73;4.20;;;10.70;99.90;;;;;;5061143;28;20206;-52
2022/04/21 04:49:39;;;;;;;5.43;4.27;;;10.50;99.90;;;;;;5063757;28;20565;-50
2022/04/21 04:52:06;;;;;;;7.77;4.13;;;10.50;99.90;;;;;;5061697;28;20299;-51
2022/04/21 04:54:33;;;;;;;6.17;4.57;;;10.30;99.90;;;;;;5059601;28;20211;-49
2022/04/21 04:57:01;;;;;;;5.63;4.87;;;10.10;99.90;;;;;;5064785;28;20470;-50
2022/04/21 04:59:29;;;;;;;7.97;5.03;;;10.10;99.90;;;;;;5057086;28;20201;-50
2022/04/21 05:01:56;;;;;;;6.77;5.17;;;10.10;99.90;;;;;;5060114;28;20654;-50
2022/04/21 05:04:25;;;;;;;7.40;5.90;;;10.20;99.90;;;;;;5054428;28;20719;-51
2022/04/21 05:06:57;;;;;;;8.93;5.53;;;10.00;99.90;;;;;;5056587;28;20283;-53
2022/04/21 05:09:25;;;;;;;8.83;5.50;;;9.90;99.90;;;;;;5058465;28;20205;-52
2022/04/21 05:11:54;;;;;;;9.50;5.47;;;10.00;99.90;;;;;;5059332;28;20232;-51
2022/04/21 05:14:22;;;;;;;7.20;5.50;;;10.00;99.90;;;;;;5062326;28;20225;-50
2022/04/21 05:16:50;;;;;;;9.10;6.20;;;9.90;99.90;;;;;;5061347;28;20640;-52
2022/04/21 05:19:20;;;;;;;9.43;6.20;;;10.00;99.90;;;;;;5058300;28;20285;-51
2022/04/21 05:21:49;;;;;;;8.33;5.70;;;10.00;99.90;;;;;;5059796;28;20779;-51
2022/04/21 05:24:16;;;;;;;7.90;5.90;;;10.00;99.90;;;;;;5055789;28;20200;-51
2022/04/21 05:26:45;;;;;;;8.90;5.83;;;9.90;99.90;;;;;;5035099;28;20738;-53
2022/04/21 05:32:04;;;;;;;10.53;6.30;;;9.90;99.90;;;;;;5062333;28;20400;-51
2022/04/21 05:34:32;;;;;;;9.27;6.17;;;10.10;99.90;;;;;;5058387;28;20202;-52
2022/04/21 05:37:00;;;;;;;6.80;6.10;;;10.10;99.90;;;;;;5059556;28;20235;-51
2022/04/21 05:39:31;;;;;;;7.70;6.37;;;9.90;99.90;;;;;;5045056;28;20198;-51
2022/04/21 05:41:59;;;;;;;10.00;6.73;;;9.80;99.90;;;;;;5059330;28;20243;-51
2022/04/21 05:44:27;;;;;;;10.00;6.50;;;9.80;99.90;;;;;;5063711;28;20574;-51
2022/04/21 05:46:54;;;;;;;7.80;6.33;;;10.00;99.90;;;;;;5059521;28;20668;-49
2022/04/21 05:49:21;;;;;;;8.73;6.40;;;9.90;99.90;;;;;;5059386;28;20241;-50
2022/04/21 05:51:48;;;;;;;9.33;6.57;;;9.90;99.90;;;;;;5060091;28;20217;-58
2022/04/21 05:54:16;;;;;;;11.40;6.90;;;10.10;99.90;;;;;;5058888;28;20194;-49
2022/04/21 05:56:43;;;;;;;9.77;6.23;;;9.80;99.90;;;;;;5055444;28;20223;-50
2022/04/21 05:59:10;;;;;;;12.43;6.53;;;9.90;99.90;;;;;;5059308;28;20210;-51
2022/04/21 06:01:37;;;;;;;8.20;6.33;;;9.80;99.90;;;;;;5053472;28;20736;-51
2022/04/21 06:04:04;;;;;;;7.43;5.97;;;9.90;99.90;;;;;;5058777;28;20202;-51
2022/04/21 06:06:31;;;;;;;6.53;5.90;;;10.20;99.90;;;;;;5054038;28;20577;-50
2022/04/21 06:08:58;;;;;;;8.20;6.20;;;10.40;99.90;;;;;;5052203;28;20272;-50
2022/04/21 06:11:25;;;;;;;8.07;5.60;;;10.50;99.90;;;;;;5059445;28;20210;-51
2022/04/21 06:13:52;;;;;;;9.67;6.13;;;10.60;99.90;;;;;;5056632;28;20656;-51
2022/04/21 06:16:18;;;;;;;8.23;6.23;;;10.60;99.90;;;;;;5062431;28;20601;-49
2022/04/21 06:18:45;;;;;;;8.77;6.33;;;10.70;99.90;;;;;;5061470;28;20619;-50
2022/04/21 06:21:12;;;;;;;8.80;6.07;;;10.80;99.90;;;;;;5056466;28;20297;-49
2022/04/21 06:23:39;;;;;;;9.17;6.47;;;10.80;99.90;;;;;;5056892;28;20766;-51
2022/04/21 06:26:06;;;;;;;8.63;6.50;;;10.90;99.90;;;;;;5057732;28;20242;-49
2022/04/21 06:28:34;;;;;;;11.60;6.63;;;11.00;99.90;;;;;;5052977;28;20230;-49
2022/04/21 06:31:01;;;;;;;10.57;6.60;;;11.00;99.90;;;;;;5057335;28;20195;-51
2022/04/21 06:33:32;;;;;;;9.13;6.47;;;10.90;99.90;;;;;;5042185;28;20219;-50
2022/04/21 06:36:00;;;;;;;8.83;6.00;;;11.10;99.90;;;;;;5052234;28;20197;-49
2022/04/21 06:38:27;;;;;;;8.27;6.50;;;11.10;99.90;;;;;;5059541;28;21071;-51
2022/04/21 06:40:54;;;;;;;11.70;5.67;;;11.20;99.90;;;;;;5059835;28;20554;-50
2022/04/21 06:48:52;;;;;;;7.43;6.40;;;11.90;99.90;;;;;;5053560;28;20258;-50
2022/04/21 06:51:19;;;;;;;8.90;6.13;;;12.20;99.90;;;;;;5052664;28;20206;-51
2022/04/21 06:53:46;;;;;;;8.60;6.17;;;12.10;99.90;;;;;;5059815;28;20202;-51
2022/04/21 06:56:13;;;;;;;8.07;6.17;;;12.50;99.90;;;;;;5060588;28;20209;-51
2022/04/21 06:58:40;;;;;;;10.27;6.20;;;12.80;99.90;;;;;;5054926;28;20263;-53
2022/04/21 07:01:07;;;;;;;11.00;5.60;;;12.80;99.90;;;;;;5041962;28;20206;-49
2022/04/21 07:03:35;;;;;;;9.90;5.60;;;12.90;99.90;;;;;;5058772;28;20201;-50
2022/04/21 07:06:03;;;;;;;7.43;5.63;;;12.90;99.90;;;;;;5059971;28;20199;-50
2022/04/21 07:08:30;;;;;;;8.77;5.83;;;13.10;99.90;;;;;;5060697;28;20225;-51
2022/04/21 07:10:57;;;;;;;8.03;4.83;;;13.40;99.90;;;;;;5062333;28;20230;-49
2022/04/21 07:13:24;;;;;;;7.87;5.47;;;13.30;99.90;;;;;;5057748;28;20214;-50
2022/04/21 07:15:52;;;;;;;8.47;5.60;;;13.40;99.90;;;;;;5060373;28;20963;-51
2022/04/21 07:18:19;;;;;;;8.97;6.23;;;13.40;99.90;;;;;;5060111;28;20223;-50
2022/04/21 07:20:47;;;;;;;6.93;5.70;;;13.60;99.90;;;;;;5059554;28;20193;-51
2022/04/21 07:23:14;;;;;;;6.33;5.67;;;13.90;99.90;;;;;;5060742;28;20701;-49
2022/04/21 07:25:42;;;;;;;7.40;5.97;;;13.90;99.90;;;;;;5063566;28;20228;-50
2022/04/21 07:28:09;;;;;;;6.93;5.50;;;13.90;99.90;;;;;;5067716;28;20240;-49
2022/04/21 07:30:36;;;;;;;6.60;5.47;;;14.10;99.90;;;;;;5065881;28;20205;-51
2022/04/21 07:33:03;;;;;;;11.50;5.70;;;13.90;99.90;;;;;;5064422;28;20765;-50
2022/04/21 07:35:31;;;;;;;6.70;5.23;;;13.80;99.90;;;;;;5067996;28;20191;-50
2022/04/21 07:37:59;;;;;;;8.43;5.47;;;13.90;99.90;;;;;;5067667;28;20251;-50
2022/04/21 07:40:28;;;;;;;8.07;6.23;;;13.70;99.90;;;;;;5062638;28;20618;-50
2022/04/21 07:42:55;;;;;;;9.47;5.80;;;13.80;99.90;;;;;;5060303;28;20669;-50
2022/04/21 07:45:22;;;;;;;7.77;6.03;;;13.30;99.90;;;;;;5064772;28;20196;-50
2022/04/21 07:47:49;;;;;;;8.67;6.03;;;13.40;99.90;;;;;;5058982;28;20290;-50
2022/04/21 07:50:16;;;;;;;6.97;5.90;;;13.50;99.90;;;;;;5063154;28;20232;-51
2022/04/21 07:53:18;;;;;;;7.13;5.50;;;13.40;99.90;;;;;;5063214;28;20229;-51
2022/04/21 07:55:48;;;;;;;8.70;5.80;;;13.40;99.90;;;;;;5063266;28;20293;-50
2022/04/21 07:58:15;;;;;;;7.60;5.97;;;13.70;99.90;;;;;;5064472;28;20238;-51
2022/04/21 08:00:41;;;;;;;7.97;5.43;;;13.60;99.90;;;;;;5061244;28;20305;-50
2022/04/21 08:03:11;;;;;;;6.77;5.60;;;14.00;99.90;;;;;;5060533;28;20201;-52
2022/04/21 08:05:41;;;;;;;7.83;6.37;;;14.10;99.90;;;;;;5062829;28;20222;-49
2022/04/21 08:08:11;;;;;;;12.83;6.33;;;13.90;99.90;;;;;;5063114;28;20217;-52
2022/04/21 08:10:38;;;;;;;6.43;5.60;;;14.30;99.90;;;;;;5062369;28;20204;-49
2022/04/21 08:13:05;;;;;;;6.70;4.87;;;14.50;99.90;;;;;;5063710;28;20246;-51
2022/04/21 08:15:33;;;;;;;8.87;6.20;;;14.60;99.90;;;;;;5062539;28;20213;-49
2022/04/21 08:18:03;;;;;;;10.13;5.03;;;14.80;99.90;;;;;;5062147;28;20275;-48
2022/04/21 08:20:32;;;;;;;5.70;5.03;;;15.20;99.90;;;;;;5066441;28;20205;-48
2022/04/21 08:22:59;;;;;;;6.37;4.57;;;15.00;99.90;;;;;;5065128;28;20237;-49
2022/04/21 08:34:24;;;;;;;5.60;4.33;;;15.70;99.90;;;;;;5056962;28;20205;-50
2022/04/21 08:36:54;;;;;;;6.23;4.70;;;16.10;99.90;;;;;;5058554;28;20198;-50
2022/04/21 08:39:21;;;;;;;8.50;4.23;;;16.30;99.90;;;;;;5064877;28;20208;-52
2022/04/21 08:41:51;;;;;;;4.67;4.27;;;16.60;99.90;;;;;;5062953;28;20214;-51
2022/04/21 08:44:19;;;;;;;4.43;3.97;;;16.90;99.90;;;;;;5064270;28;20284;-50
2022/04/21 08:46:48;;;;;;;6.63;4.37;;;17.30;99.90;;;;;;5064527;28;20344;-53
2022/04/21 08:49:18;;;;;;;7.87;3.80;;;17.00;99.90;;;;;;5060285;28;20208;-51
2022/04/21 08:51:45;;;;;;;4.47;3.70;;;17.40;99.90;;;;;;5062784;28;20237;-53
2022/04/21 08:54:12;;;;;;;4.97;3.77;;;17.40;99.90;;;;;;5063553;28;20315;-51
2022/04/21 08:56:39;;;;;;;3.40;2.87;;;17.60;99.90;;;;;;5045004;28;20289;-49
2022/04/21 08:59:06;;;;;;;3.93;3.00;;;17.30;99.90;;;;;;5040291;28;20199;-52
2022/04/21 09:01:34;;;;;;;7.60;3.13;;;17.80;99.90;;;;;;5060112;28;20284;-50
2022/04/21 09:04:01;;;;;;;4.70;3.33;;;17.70;99.90;;;;;;5060164;28;20203;-54
2022/04/21 09:06:29;;;;;;;4.60;3.20;;;17.90;99.90;;;;;;5060150;28;20272;-53
2022/04/21 09:09:17;;;;;;;3.30;3.00;;;18.10;99.90;;;;;;5061028;28;20619;-53
2022/04/21 09:11:45;;;;;;;5.50;3.03;;;17.70;99.90;;;;;;5061802;28;20195;-51
2022/04/21 09:14:17;;;;;;;3.13;2.80;;;18.00;99.90;;;;;;5062494;28;20265;-51
2022/04/21 09:16:44;;;;;;;6.57;3.20;;;18.20;99.90;;;;;;5065139;28;20261;-51
2022/04/21 09:19:12;;;;;;;4.40;3.97;;;18.30;99.90;;;;;;5058955;28;20211;-52
2022/04/21 09:21:40;;;;;;;5.00;3.40;;;18.10;99.90;;;;;;5041561;28;20322;-50
2022/04/21 09:24:24;;;;;;;5.43;3.90;;;18.30;99.90;;;;;;5056487;28;20204;-51
2022/04/21 09:26:52;;;;;;;7.03;4.57;;;17.20;99.90;;;;;;5060983;28;20204;-51
2022/04/21 09:29:24;;;;;;;5.77;4.37;;;17.30;99.90;;;;;;5062390;28;20239;-52
2022/04/21 09:32:02;;;;;;;4.67;4.10;;;16.90;99.90;;;;;;5064532;28;20203;-52
2022/04/21 09:34:36;;;;;;;5.53;4.50;;;17.60;99.90;;;;;;5056976;28;20203;-52
2022/04/21 09:37:06;;;;;;;6.07;3.50;;;18.20;99.90;;;;;;5062247;28;20248;-52
2022/04/21 09:39:52;;;;;;;6.40;3.63;;;18.00;99.90;;;;;;5041138;28;21010;-54
2022/04/21 09:42:26;;;;;;;5.13;3.40;;;18.30;99.90;;;;;;5058675;28;20288;-52
2022/04/21 09:47:48;;;;;;;2.40;2.20;;;18.30;99.90;;;;;;5060488;28;20191;-52
2022/04/21 09:50:16;;;;;;;2.40;2.20;;;17.40;99.90;;;;;;5060391;28;20202;-53
2022/04/21 09:52:50;;;;;;;2.20;2.00;;;17.90;99.90;;;;;;5056465;28;20213;-52
2022/04/21 09:55:27;;;;;;;2.70;2.03;;;18.20;99.90;;;;;;5059670;28;20215;-51
2022/04/21 09:58:08;;;;;;;1.67;1.50;;;18.00;99.90;;;;;;5058515;28;20731;-50
2022/04/21 10:00:36;;;;;;;3.07;1.97;;;17.60;99.90;;;;;;5037421;28;20196;-53
2022/04/21 10:03:05;;;;;;;2.70;2.00;;;17.60;99.90;;;;;;5054855;28;20739;-51
2022/04/21 10:05:34;;;;;;;2.47;1.97;;;17.90;99.90;;;;;;5064410;28;20206;-51
2022/04/21 10:08:06;;;;;;;2.83;2.00;;;18.00;99.90;;;;;;5062775;28;20230;-50
2022/04/21 10:10:34;;;;;;;2.00;1.80;;;17.70;99.90;;;;;;5065885;28;20206;-51
2022/04/21 10:13:03;;;;;;;2.60;2.00;;;17.50;99.90;;;;;;5069384;28;20752;-50
2022/04/21 10:15:31;;;;;;;2.37;1.97;;;17.10;99.90;;;;;;5060359;28;20199;-50
2022/04/21 10:17:57;;;;;;;3.17;2.40;;;17.20;99.90;;;;;;5054941;28;20682;-48
2022/04/21 10:20:26;;;;;;;2.37;1.90;;;17.10;99.90;;;;;;5059347;28;20651;-50
2022/04/21 10:22:54;;;;;;;3.73;2.30;;;17.20;99.90;;;;;;5059874;28;20318;-51
2022/04/21 10:25:37;;;;;;;4.77;2.20;;;16.90;99.90;;;;;;5061277;28;20816;-50
2022/04/21 10:28:33;;;;;;;2.50;2.10;;;16.70;99.90;;;;;;5061934;28;20312;-50
2022/04/21 10:31:25;;;;;;;2.63;2.33;;;17.30;99.90;;;;;;5065141;28;20704;-50
2022/04/21 10:33:53;;;;;;;2.93;2.07;;;17.60;99.90;;;;;;5063889;28;20239;-51
2022/04/21 10:36:37;;;;;;;2.80;2.20;;;17.20;99.90;;;;;;5067481;28;20263;-51
2022/04/21 10:39:22;;;;;;;1.90;1.80;;;17.10;99.90;;;;;;5063816;28;20289;-50
2022/04/21 10:42:15;;;;;;;3.03;1.83;;;17.50;99.90;;;;;;5065882;28;20265;-50
2022/04/21 10:44:47;;;;;;;2.67;2.20;;;17.30;99.90;;;;;;5063730;28;20290;-50
2022/04/21 10:47:28;;;;;;;2.50;2.00;;;17.40;99.90;;;;;;5037998;28;20229;-49
2022/04/21 10:50:19;;;;;;;1.90;1.70;;;17.40;99.90;;;;;;5062108;28;21022;-52
2022/04/21 10:58:35;;;;;;;3.43;1.80;;;17.80;99.90;;;;;;5062330;28;20646;-49
2022/04/21 11:01:19;;;;;;;2.53;1.87;;;17.90;99.90;;;;;;5059402;28;20187;-50
2022/04/21 11:04:03;;;;;;;2.80;1.83;;;18.20;99.90;;;;;;5065418;28;20225;-50
2022/04/21 11:06:45;;;;;;;1.97;1.60;;;18.10;99.90;;;;;;5068584;28;20908;-50
2022/04/21 11:09:41;;;;;;;3.57;2.07;;;18.20;99.90;;;;;;5066976;28;20333;-50
2022/04/21 11:12:49;;;;;;;3.57;2.17;;;18.20;99.90;;;;;;5067628;28;20810;-50
2022/04/21 11:15:33;;;;;;;2.63;1.70;;;18.20;99.90;;;;;;5063006;28;20227;-56
2022/04/21 11:18:05;;;;;;;2.37;2.00;;;18.10;99.90;;;;;;5069431;28;20325;-51
2022/04/21 11:20:32;;;;;;;3.80;2.50;;;18.60;99.90;;;;;;5048347;28;20200;-50
2022/04/21 11:22:58;;;;;;;2.53;1.80;;;18.20;99.90;;;;;;5064904;28;20219;-50
2022/04/21 11:25:25;;;;;;;3.27;1.70;;;18.80;99.90;;;;;;5067186;28;20704;-51
2022/04/21 11:27:53;;;;;;;4.47;2.03;;;18.80;99.90;;;;;;5069095;28;20241;-56
2022/04/21 11:30:20;;;;;;;1.90;1.70;;;18.90;99.90;;;;;;5066670;28;20663;-51
2022/04/21 11:32:53;;;;;;;2.67;2.30;;;19.20;99.90;;;;;;5065762;28;20210;-50
2022/04/21 11:35:22;;;;;;;7.87;2.03;;;19.20;99.90;;;;;;5070249;28;20698;-51
2022/04/21 11:37:59;;;;;;;2.37;1.70;;;19.20;99.90;;;;;;5065198;28;20979;-50
2022/04/21 11:40:37;;;;;;;2.80;2.00;;;19.60;99.90;;;;;;5065221;28;20207;-50
2022/04/21 11:43:17;;;;;;;3.97;1.80;;;19.70;99.90;;;;;;5065008;28;20191;-51
2022/04/21 11:45:58;;;;;;;2.13;1.70;;;19.40;99.90;;;;;;5068621;28;20198;-52
2022/04/21 11:48:40;;;;;;;4.23;2.37;;;20.20;99.90;;;;;;5065691;28;20225;-51
2022/04/21 11:51:08;;;;;;;2.30;2.03;;;20.50;99.90;;;;;;5065307;28;20211;-51
2022/04/21 11:53:37;;;;;;;2.93;1.77;;;20.40;99.90;;;;;;5069531;28;20725;-50
2022/04/21 11:56:05;;;;;;;3.17;2.40;;;20.70;99.90;;;;;;5069041;28;20257;-53
2022/04/21 11:58:38;;;;;;;1.60;1.43;;;20.40;99.90;;;;;;5062045;28;20732;-50
2022/04/21 12:06:53;;;;;;;2.27;1.63;;;21.10;99.90;;;;;;5068314;28;20238;-50
2022/04/21 12:09:22;;;;;;;2.00;1.80;;;20.80;99.90;;;;;;5061919;28;20209;-51
2022/04/21 12:11:57;;;;;;;4.30;2.03;;;20.20;99.90;;;;;;5064127;28;20200;-50
2022/04/21 12:14:25;;;;;;;3.30;2.07;;;20.00;99.90;;;;;;5066944;28;20284;-50
2022/04/21 12:16:53;;;;;;;2.23;2.03;;;20.20;99.90;;;;;;5064443;28;20222;-51
2022/04/21 12:19:28;;;;;;;10.10;2.93;;;20.40;99.90;;;;;;5064893;28;20203;-51
2022/04/21 12:22:00;;;;;;;4.47;1.90;;;19.90;99.90;;;;;;5067216;28;20215;-50
2022/04/21 12:24:37;;;;;;;3.53;1.83;;;19.90;99.90;;;;;;5068744;28;20238;-50
2022/04/21 12:27:12;;;;;;;2.20;2.00;;;19.60;99.90;;;;;;5062302;28;20200;-52
2022/04/21 12:30:06;;;;;;;8.50;2.23;;;20.50;99.90;;;;;;5065317;28;20239;-49
2022/04/21 12:32:39;;;;;;;2.50;1.77;;;20.50;99.90;;;;;;5062281;28;20202;-51
2022/04/21 12:35:08;;;;;;;4.23;2.23;;;20.50;99.90;;;;;;5056481;28;20239;-50
2022/04/21 12:37:40;;;;;;;4.10;2.13;;;20.70;99.90;;;;;;5068340;28;20196;-50
2022/04/21 12:40:09;;;;;;;5.40;2.10;;;20.50;99.90;;;;;;5061816;28;20277;-51
2022/04/21 12:42:43;;;;;;;2.03;1.83;;;19.40;99.90;;;;;;5061173;28;20580;-51
2022/04/21 12:45:11;;;;;;;3.43;2.00;;;19.20;99.90;;;;;;5063085;28;20199;-50
2022/04/21 12:47:43;;;;;;;2.40;1.93;;;20.10;99.90;;;;;;5047680;28;20276;-51
2022/04/21 12:50:18;;;;;;;2.60;1.80;;;20.20;99.90;;;;;;5061655;28;20195;-50
2022/04/21 12:52:53;;;;;;;2.50;1.47;;;20.10;99.90;;;;;;5064693;28;20625;-50
2022/04/21 12:55:28;;;;;;;2.87;2.27;;;20.60;99.90;;;;;;5060227;28;20199;-51
2022/04/21 12:58:05;;;;;;;2.77;2.00;;;21.10;99.90;;;;;;5059661;28;20200;-50
2022/04/21 13:00:37;;;;;;;2.43;1.87;;;20.90;99.90;;;;;;5062445;28;20203;-49
2022/04/21 13:03:06;;;;;;;3.37;2.20;;;20.80;99.90;;;;;;5057871;28;20278;-49
2022/04/21 13:05:33;;;;;;;6.90;2.20;;;20.90;99.90;;;;;;5055722;28;20290;-49
2022/04/21 13:08:00;;;;;;;3.60;2.13;;;21.00;99.90;;;;;;5063468;28;20207;-50
2022/04/21 13:10:27;;;;;;;2.50;1.77;;;21.00;99.90;;;;;;5060590;28;20224;-51
2022/04/21 13:12:54;;;;;;;2.37;1.60;;;21.20;99.90;;;;;;5059128;28;20636;-51
2022/04/21 13:15:21;;;;;;;4.20;2.27;;;21.40;99.90;;;;;;5053546;28;20223;-49
2022/04/21 13:17:48;;;;;;;3.90;1.90;;;21.40;99.90;;;;;;5059005;28;20260;-51
2022/04/21 13:21:52;;;;;;;4.50;1.90;;;21.00;99.90;;;;;;5060511;28;20273;-50
2022/04/21 13:23:05;;;;;;;3.83;2.00;;;21.30;99.90;;;;;;5059884;28;20720;-48
2022/04/21 13:25:40;;;;;;;3.03;2.40;;;21.30;99.90;;;;;;5063517;28;20202;-53
2022/04/21 13:28:07;;;;;;;5.77;2.40;;;20.90;99.90;;;;;;5039804;28;20329;-51
2022/04/21 13:30:34;;;;;;;3.93;1.90;;;20.70;99.90;;;;;;5061705;28;20215;-50
2022/04/21 13:35:46;;;;;;;3.13;2.43;;;20.60;99.90;;;;;;5060389;28;20222;-53
2022/04/21 13:38:16;;;;;;;3.43;2.30;;;21.00;99.90;;;;;;5065525;28;20231;-50
2022/04/21 13:40:44;;;;;;;2.50;2.30;;;21.20;99.90;;;;;;5036411;28;20825;-49
2022/04/21 13:43:11;;;;;;;2.73;2.40;;;21.00;99.90;;;;;;5061457;28;20294;-50
2022/04/21 13:45:58;;;;;;;4.13;2.17;;;21.20;99.90;;;;;;5059252;28;20203;-51
2022/04/21 13:48:25;;;;;;;2.47;2.27;;;21.30;99.90;;;;;;5057532;28;20244;-51
2022/04/21 13:50:52;;;;;;;2.17;1.57;;;21.50;99.90;;;;;;5059377;28;20716;-51
2022/04/21 13:53:19;;;;;;;3.80;2.30;;;21.10;99.90;;;;;;5059545;28;21371;-52